Time;durP1;ratioP1;P1;durP2;ratioP2;P2;SDS_P1;SDS_P2;PMS_P1;PMS_P2;Temp;Humidity;BMP_temperature;BMP_pressure;BME280_temperature;BME280_humidity;BME280_pressure;Samples;Min_cycle;Max_cycle;Signal;HPM_P1;HPM_P2
2023/06/20 00:09:43;;;;;;;;;;;;;;;24.82;47.93;100285.66;41715663;28;19987;-85
2023/06/20 00:29:45;;;;;;;;;;;;;;;24.80;47.95;100284.16;41709832;28;19974;-84
2023/06/20 00:49:47;;;;;;;;;;;;;;;24.80;47.85;100297.38;41679065;28;19932;-85
2023/06/20 01:10:06;;;;;;;;;;;;;;;24.75;47.89;100298.63;41660911;28;20020;-86
2023/06/20 01:30:15;;;;;;;;;;;;;;;24.75;47.66;100303.13;41646727;28;20063;-84
2023/06/20 01:50:15;;;;;;;;;;;;;;;24.72;47.55;100288.34;41675251;28;19925;-85
2023/06/20 02:10:17;;;;;;;;;;;;;;;24.70;47.46;100285.00;41720364;28;20330;-84
2023/06/20 02:30:19;;;;;;;;;;;;;;;24.65;47.84;100300.47;41711314;28;19924;-85
2023/06/20 02:50:23;;;;;;;;;;;;;;;24.64;47.61;100311.22;41661916;28;19928;-84
2023/06/20 03:10:24;;;;;;;;;;;;;;;24.62;47.57;100321.94;41657108;28;19964;-84
2023/06/20 03:30:24;;;;;;;;;;;;;;;24.61;47.40;100338.81;41688783;28;19998;-84
2023/06/20 03:50:24;;;;;;;;;;;;;;;24.59;47.46;100351.34;41680066;28;19933;-85
2023/06/20 04:10:25;;;;;;;;;;;;;;;24.46;47.10;100341.03;41638322;28;19932;-79
2023/06/20 04:30:25;;;;;;;;;;;;;;;24.16;47.88;100355.25;41618250;28;19946;-76
2023/06/20 04:50:26;;;;;;;;;;;;;;;24.12;48.58;100354.72;41671504;28;20009;-75
2023/06/20 05:10:27;;;;;;;;;;;;;;;24.01;49.45;100362.78;41669769;28;19933;-76
2023/06/20 05:30:27;;;;;;;;;;;;;;;23.87;49.12;100378.06;41688204;28;19939;-76
2023/06/20 05:50:30;;;;;;;;;;;;;;;23.91;49.45;100374.19;41679078;28;19944;-83
2023/06/20 06:10:31;;;;;;;;;;;;;;;23.91;49.46;100384.75;41660619;28;19933;-89
2023/06/20 06:30:34;;;;;;;;;;;;;;;24.02;49.87;100410.25;41684011;28;19940;-82
2023/06/20 06:50:35;;;;;;;;;;;;;;;24.14;49.83;100403.03;41681120;28;20317;-82
2023/06/20 07:10:36;;;;;;;;;;;;;;;24.28;49.94;100415.84;41680239;28;19929;-83
2023/06/20 07:30:36;;;;;;;;;;;;;;;24.42;50.88;100419.88;41705657;28;19971;-83
2023/06/20 07:50:37;;;;;;;;;;;;;;;24.52;50.51;100427.81;41700354;28;19951;-81
2023/06/20 08:10:37;;;;;;;;;;;;;;;24.62;49.99;100420.72;41714966;28;19940;-85
2023/06/20 08:30:37;;;;;;;;;;;;;;;24.70;50.11;100428.00;41710579;28;19935;-81
2023/06/20 08:50:38;;;;;;;;;;;;;;;24.80;49.79;100421.84;41681617;28;19928;-81
2023/06/20 09:10:39;;;;;;;;;;;;;;;24.85;48.67;100404.56;41704760;28;19994;-81
2023/06/20 09:30:39;;;;;;;;;;;;;;;24.92;47.79;100405.63;41681526;28;19929;-79
2023/06/20 09:50:40;;;;;;;;;;;;;;;24.98;47.71;100408.72;41661256;28;20465;-80
2023/06/20 10:10:41;;;;;;;;;;;;;;;25.03;47.26;100401.16;41691409;28;20418;-79
2023/06/20 10:30:50;;;;;;;;;;;;;;;25.19;45.77;100392.59;41715708;28;19982;-78
2023/06/20 10:50:57;;;;;;;;;;;;;;;25.22;46.65;100387.84;41722379;28;20483;-78
2023/06/20 11:11:02;;;;;;;;;;;;;;;25.32;47.20;100371.09;41694028;28;20399;-77
2023/06/20 11:31:10;;;;;;;;;;;;;;;25.45;46.11;100347.75;41725518;28;19979;-76
2023/06/20 11:51:12;;;;;;;;;;;;;;;25.50;45.69;100337.53;41729248;28;19936;-80
2023/06/20 12:11:13;;;;;;;;;;;;;;;25.79;44.59;100323.22;41756078;28;19929;-88
2023/06/20 12:31:14;;;;;;;;;;;;;;;25.76;44.28;100309.47;41750874;28;21586;-85
2023/06/20 12:51:20;;;;;;;;;;;;;;;25.83;44.70;100302.53;41746814;28;20063;-84
2023/06/20 13:11:22;;;;;;;;;;;;;;;25.88;44.25;100285.19;41709450;28;20431;-85
2023/06/20 13:31:22;;;;;;;;;;;;;;;25.99;43.91;100281.47;41733940;28;19939;-87
2023/06/20 13:51:22;;;;;;;;;;;;;;;26.04;42.86;100270.41;41750894;28;19975;-79
2023/06/20 14:11:23;;;;;;;;;;;;;;;26.17;45.59;100264.72;41730426;28;20428;-79
2023/06/20 14:31:23;;;;;;;;;;;;;;;26.23;47.02;100264.09;41702587;28;20051;-83
2023/06/20 14:51:23;;;;;;;;;;;;;;;26.41;46.28;100247.28;41716424;28;20031;-79
2023/06/20 15:11:24;;;;;;;;;;;;;;;26.46;47.99;100245.00;41721113;28;19931;-83
2023/06/20 15:31:24;;;;;;;;;;;;;;;26.47;45.51;100228.91;41769980;28;19931;-85
2023/06/20 15:51:27;;;;;;;;;;;;;;;26.51;44.51;100213.47;41771251;28;19952;-87
2023/06/20 16:11:29;;;;;;;;;;;;;;;26.52;44.38;100212.50;41718483;28;21426;-82
2023/06/20 16:31:29;;;;;;;;;;;;;;;26.51;44.38;100218.78;41729176;28;19933;-82
2023/06/20 16:51:30;;;;;;;;;;;;;;;26.46;44.26;100207.81;41731187;28;19978;-89
2023/06/20 17:11:30;;;;;;;;;;;;;;;26.38;44.14;100192.69;41736269;28;19951;-83
2023/06/20 17:31:31;;;;;;;;;;;;;;;26.30;43.72;100193.47;41724389;28;19924;-87
2023/06/20 17:51:31;;;;;;;;;;;;;;;26.24;43.91;100201.25;41738878;28;19937;-86
2023/06/20 18:11:32;;;;;;;;;;;;;;;26.15;43.79;100198.53;41723944;28;19925;-85
2023/06/20 18:31:32;;;;;;;;;;;;;;;26.10;43.52;100198.19;41717694;28;19936;-77
2023/06/20 18:51:32;;;;;;;;;;;;;;;26.05;43.98;100219.84;41721393;28;20028;-81
2023/06/20 19:11:34;;;;;;;;;;;;;;;26.03;44.95;100244.84;41699417;28;20071;-78
2023/06/20 19:31:38;;;;;;;;;;;;;;;26.10;43.70;100263.66;41651239;28;19929;-80
2023/06/20 19:51:41;;;;;;;;;;;;;;;26.17;43.65;100259.41;41626804;28;21195;-76
2023/06/20 20:11:44;;;;;;;;;;;;;;;26.20;43.68;100262.59;41687912;28;20000;-74
2023/06/20 20:31:45;;;;;;;;;;;;;;;26.24;43.92;100264.94;41634535;28;19940;-77
2023/06/20 20:51:46;;;;;;;;;;;;;;;26.16;43.86;100266.53;41673809;28;19952;-76
2023/06/20 21:11:46;;;;;;;;;;;;;;;25.99;44.05;100278.81;41684492;28;19928;-78
2023/06/20 21:31:46;;;;;;;;;;;;;;;25.88;44.47;100273.75;41658972;28;19928;-77
2023/06/20 21:51:48;;;;;;;;;;;;;;;25.73;45.02;100276.94;41684195;28;19929;-77
2023/06/20 22:11:48;;;;;;;;;;;;;;;25.61;45.47;100282.59;41699159;28;19943;-77
2023/06/20 22:31:49;;;;;;;;;;;;;;;25.54;45.18;100293.81;41709842;28;20119;-77
2023/06/20 22:51:52;;;;;;;;;;;;;;;25.47;45.38;100302.53;41710076;28;19929;-76
2023/06/20 23:11:52;;;;;;;;;;;;;;;25.39;45.55;100292.69;41719066;28;19933;-76
2023/06/20 23:31:53;;;;;;;;;;;;;;;25.28;46.26;100272.50;41691003;28;21352;-80
2023/06/20 23:51:54;;;;;;;;;;;;;;;25.18;46.52;100299.03;41675485;28;19952;-78
